Terminal Aerodrome Forecast
Issued by NWS

Home | Current Version | Previous Version | Text Only | Print | Product List | Glossary On
Versions: 1 2 3 4 5 6 7 8 9 10 11 12 13 14 15 16 17 18 19
000
FTUS42 KMLB 012343
TAFLEE
TAF
KLEE 012343Z 0200/0224 09007KT P6SM FEW035 BKN250
     FM020600 05004KT 3SM BR OVC003
      TEMPO 0209/0213 1/2SM FG VV001
     FM021400 VRB03KT P6SM BKN010
     FM021800 VRB04KT P6SM SCT035=

USA.gov is the U.S. government's official web portal to all federal, state and local government web resources and services.